createdAt,value
2022-12-28T00:00:58.276Z,5.53
2022-12-28T00:03:29.733Z,5.47
2022-12-28T00:05:59.446Z,5.34
2022-12-28T00:08:29.266Z,5.38
2022-12-28T00:11:08.635Z,5.39
2022-12-28T00:13:40.452Z,5.54
2022-12-28T00:16:12.620Z,5.53
2022-12-28T00:18:43.168Z,4.69
2022-12-28T00:21:12.435Z,5.56
2022-12-28T00:23:41.619Z,5.47
2022-12-28T00:26:13.212Z,5.05
2022-12-28T00:28:43.111Z,5.70
2022-12-28T00:31:12.447Z,5.58
2022-12-28T00:33:45.358Z,5.61
2022-12-28T00:36:15.961Z,5.59
2022-12-28T00:38:45.900Z,5.48
2022-12-28T00:41:15.507Z,5.62
2022-12-28T00:43:46.284Z,5.76
2022-12-28T00:46:15.821Z,5.61
2022-12-28T00:48:46.822Z,5.58
2022-12-28T00:51:17.993Z,5.58
2022-12-28T00:53:47.042Z,5.70
2022-12-28T00:56:18.825Z,5.81
2022-12-28T00:58:51.710Z,5.80
2022-12-28T01:01:25.042Z,5.80
2022-12-28T01:03:56.727Z,6.01
2022-12-28T01:06:27.249Z,6.05
2022-12-28T01:08:56.809Z,5.94
2022-12-28T01:11:28.310Z,6.05
2022-12-28T01:14:00.143Z,5.96
2022-12-28T01:16:31.892Z,6.05
2022-12-28T01:19:05.015Z,5.88
2022-12-28T01:21:35.894Z,5.92
2022-12-28T01:24:08.096Z,5.98
2022-12-28T01:26:37.947Z,5.40
2022-12-28T01:29:07.694Z,6.09
2022-12-28T01:31:37.027Z,6.09
2022-12-28T01:34:08.014Z,6.03
2022-12-28T01:36:37.199Z,6.08
2022-12-28T01:39:08.358Z,6.16
2022-12-28T01:41:40.004Z,5.84
2022-12-28T01:44:42.631Z,6.14
2022-12-28T01:47:17.277Z,6.21
2022-12-28T01:49:57.228Z,6.04
2022-12-28T01:52:31.477Z,6.11
2022-12-28T01:55:07.277Z,6.01
2022-12-28T01:57:43.724Z,6.10
2022-12-28T02:00:17.501Z,6.04
2022-12-28T02:02:53.636Z,6.14
2022-12-28T02:05:29.853Z,6.15
2022-12-28T02:08:03.730Z,6.19
2022-12-28T02:10:42.760Z,6.21
2022-12-28T02:13:16.493Z,6.18
2022-12-28T02:15:47.086Z,6.07
2022-12-28T02:18:17.878Z,6.21
2022-12-28T02:21:13.205Z,6.03
2022-12-28T02:24:15.529Z,6.08
2022-12-28T02:26:55.897Z,6.09
2022-12-28T02:29:38.844Z,6.23
2022-12-28T02:32:19.182Z,6.30
2022-12-28T02:34:57.232Z,6.39
2022-12-28T02:37:33.213Z,6.42
2022-12-28T02:40:09.433Z,6.58
2022-12-28T02:42:40.747Z,6.40
2022-12-28T02:45:50.431Z,6.36
2022-12-28T02:48:39.976Z,6.50
2022-12-28T02:51:39.076Z,6.49
2022-12-28T02:54:56.725Z,6.54
2022-12-28T02:57:46.536Z,6.52
2022-12-28T03:00:24.124Z,6.38
2022-12-28T03:03:07.699Z,6.43
2022-12-28T03:06:08.642Z,6.37
2022-12-28T03:08:45.328Z,6.45
2022-12-28T03:11:19.224Z,6.38
2022-12-28T03:13:56.909Z,6.42
2022-12-28T03:16:55.327Z,6.42
2022-12-28T03:19:49.431Z,6.45
2022-12-28T03:22:37.909Z,6.45
2022-12-28T03:25:30.521Z,6.48
2022-12-28T03:28:19.667Z,6.43
2022-12-28T03:31:07.648Z,6.56
2022-12-28T03:33:45.708Z,6.62
2022-12-28T03:36:29.607Z,6.61
2022-12-28T03:39:05.193Z,6.63
2022-12-28T03:41:39.568Z,6.70
2022-12-28T03:44:33.100Z,6.69
2022-12-28T03:47:09.656Z,6.72
2022-12-28T03:49:47.828Z,6.73
2022-12-28T03:52:18.168Z,6.81
2022-12-28T03:54:48.296Z,6.80
2022-12-28T03:57:19.751Z,6.77
2022-12-28T03:59:51.867Z,6.76
2022-12-28T04:02:22.054Z,6.92
2022-12-28T04:04:53.111Z,6.79
2022-12-28T04:07:27.189Z,6.77
2022-12-28T04:09:57.099Z,6.77
2022-12-28T04:12:27.142Z,6.78
2022-12-28T04:15:26.326Z,6.82
2022-12-28T04:17:56.082Z,6.82
2022-12-28T04:20:27.491Z,6.84
2022-12-28T04:22:57.140Z,6.82
2022-12-28T04:25:27.843Z,6.73
2022-12-28T04:27:57.756Z,6.72
2022-12-28T04:31:07.198Z,6.77
2022-12-28T04:33:39.547Z,6.75
2022-12-28T04:36:13.940Z,6.84
2022-12-28T04:38:45.059Z,6.84
2022-12-28T04:41:14.747Z,6.93
2022-12-28T04:43:44.247Z,6.90
2022-12-28T04:46:16.592Z,7.07
2022-12-28T04:48:45.920Z,6.87
2022-12-28T04:51:21.009Z,7.13
2022-12-28T04:53:51.283Z,7.01
2022-12-28T04:56:22.372Z,6.96
2022-12-28T04:58:55.881Z,6.94
2022-12-28T05:01:26.095Z,6.87
2022-12-28T05:03:59.822Z,7.06
2022-12-28T05:06:31.494Z,7.13
2022-12-28T05:09:01.300Z,7.19
2022-12-28T05:11:32.124Z,7.10
2022-12-28T05:14:02.059Z,7.18
2022-12-28T05:16:32.256Z,7.12
2022-12-28T05:19:02.226Z,7.12
2022-12-28T05:21:35.908Z,6.99
2022-12-28T05:24:06.053Z,6.93
2022-12-28T05:26:36.336Z,7.09
2022-12-28T05:29:06.926Z,6.97
2022-12-28T05:31:36.434Z,7.04
2022-12-28T05:34:06.262Z,7.09
2022-12-28T05:36:38.298Z,7.18
2022-12-28T05:39:08.505Z,7.28
2022-12-28T05:41:38.398Z,7.28
2022-12-28T05:44:08.629Z,7.20
2022-12-28T05:46:37.496Z,7.14
2022-12-28T05:49:09.483Z,7.33
2022-12-28T05:51:40.361Z,7.21
2022-12-28T05:54:09.207Z,7.47
2022-12-28T05:56:38.126Z,7.58
2022-12-28T05:59:09.137Z,7.47
2022-12-28T06:01:40.404Z,7.64
2022-12-28T06:04:16.370Z,7.56
2022-12-28T06:06:48.661Z,7.68
2022-12-28T06:09:17.754Z,7.57
2022-12-28T06:11:46.994Z,7.72
2022-12-28T06:14:16.549Z,7.84
2022-12-28T06:16:46.025Z,7.81
2022-12-28T06:19:15.626Z,7.76
2022-12-28T06:21:44.513Z,7.74
2022-12-28T06:24:15.146Z,7.68
2022-12-28T06:26:47.203Z,7.68
2022-12-28T06:29:16.272Z,7.88
2022-12-28T06:31:48.073Z,7.65
2022-12-28T06:34:17.013Z,7.74
2022-12-28T06:36:47.482Z,7.75
2022-12-28T06:39:17.757Z,7.66
2022-12-28T06:41:46.975Z,7.80
2022-12-28T06:44:16.221Z,7.77
2022-12-28T06:46:45.023Z,7.76
2022-12-28T06:49:13.937Z,7.66
2022-12-28T06:51:43.500Z,7.14
2022-12-28T06:54:12.796Z,7.78
2022-12-28T06:56:43.051Z,7.83
2022-12-28T06:59:14.068Z,7.66
2022-12-28T07:01:44.891Z,7.70
2022-12-28T07:04:14.230Z,7.71
2022-12-28T07:06:46.424Z,7.67
2022-12-28T07:09:17.499Z,7.69
2022-12-28T07:11:51.655Z,7.69
2022-12-28T07:14:22.649Z,7.65
2022-12-28T07:16:51.409Z,7.70
2022-12-28T07:19:20.666Z,7.73
2022-12-28T07:21:51.225Z,7.72
2022-12-28T07:24:21.114Z,7.20
2022-12-28T07:26:51.397Z,7.75
2022-12-28T07:29:20.234Z,7.79
2022-12-28T07:31:49.102Z,7.81
2022-12-28T07:34:17.929Z,7.68
2022-12-28T07:36:46.988Z,7.73
2022-12-28T07:39:16.024Z,7.79
2022-12-28T07:41:45.135Z,7.76
2022-12-28T07:44:16.183Z,7.82
2022-12-28T07:46:45.574Z,8.16
2022-12-28T07:49:14.681Z,7.92
2022-12-28T07:51:46.622Z,7.86
2022-12-28T07:54:15.624Z,7.86
2022-12-28T07:56:44.651Z,7.56
2022-12-28T07:59:15.474Z,7.69
2022-12-28T08:01:44.983Z,7.78
2022-12-28T08:04:16.262Z,7.89
2022-12-28T08:06:47.535Z,7.80
2022-12-28T08:09:17.074Z,7.85
2022-12-28T08:11:50.692Z,7.78
2022-12-28T08:14:21.243Z,7.82
2022-12-28T08:16:50.901Z,7.95
2022-12-28T08:19:20.235Z,7.93
2022-12-28T08:21:49.277Z,7.82
2022-12-28T08:24:20.002Z,7.90
2022-12-28T08:26:50.097Z,7.93
2022-12-28T08:29:23.079Z,7.84
2022-12-28T08:31:52.193Z,7.74
2022-12-28T08:34:26.947Z,7.79
2022-12-28T08:36:57.288Z,7.86
2022-12-28T08:39:26.559Z,7.93
2022-12-28T08:41:57.341Z,7.89
2022-12-28T08:44:30.513Z,7.85
2022-12-28T08:46:59.635Z,7.87
2022-12-28T08:49:28.443Z,8.03
2022-12-28T08:51:57.247Z,8.04
2022-12-28T08:54:25.985Z,7.86
2022-12-28T08:56:55.228Z,8.02
2022-12-28T08:59:27.535Z,8.03
2022-12-28T09:01:57.821Z,7.95
2022-12-28T09:04:26.749Z,7.73
2022-12-28T09:06:55.884Z,8.02
2022-12-28T09:09:24.810Z,8.02
2022-12-28T09:11:54.643Z,7.97
2022-12-28T09:14:24.715Z,8.05
2022-12-28T09:16:54.823Z,7.98
2022-12-28T09:19:25.201Z,8.04
2022-12-28T09:21:55.484Z,7.96
2022-12-28T09:24:24.794Z,7.94
2022-12-28T09:26:55.496Z,7.91
2022-12-28T09:29:24.920Z,7.92
2022-12-28T09:31:53.708Z,8.03
2022-12-28T09:34:39.628Z,8.24
2022-12-28T09:37:11.433Z,8.07
2022-12-28T09:39:40.963Z,7.99
2022-12-28T09:42:16.427Z,7.99
2022-12-28T09:45:01.948Z,7.80
2022-12-28T09:47:39.637Z,7.92
2022-12-28T09:50:29.806Z,8.01
2022-12-28T09:53:16.957Z,7.93
2022-12-28T09:55:54.952Z,7.83
2022-12-28T09:58:24.533Z,7.14
2022-12-28T10:00:58.096Z,8.07
2022-12-28T10:03:33.352Z,7.97
2022-12-28T10:06:06.522Z,7.84
2022-12-28T10:08:39.148Z,7.92
2022-12-28T10:11:08.466Z,7.85
2022-12-28T10:13:56.158Z,8.04
2022-12-28T10:16:32.611Z,8.04
2022-12-28T10:19:02.802Z,7.35
2022-12-28T10:21:35.706Z,8.06
2022-12-28T10:27:00.140Z,8.14
2022-12-28T10:29:32.517Z,7.97
2022-12-28T10:32:09.192Z,8.10
2022-12-28T10:34:39.095Z,7.48
2022-12-28T10:37:15.938Z,8.28
2022-12-28T10:39:54.328Z,8.01
2022-12-28T10:42:28.970Z,7.96
2022-12-28T10:45:04.516Z,7.99
2022-12-28T10:47:38.111Z,7.93
2022-12-28T10:53:01.777Z,7.87
2022-12-28T10:55:33.402Z,7.99
2022-12-28T10:58:29.717Z,7.87
2022-12-28T11:01:02.192Z,7.95
2022-12-28T11:03:35.335Z,7.99
2022-12-28T11:06:24.368Z,7.96
2022-12-28T11:09:15.858Z,8.07
2022-12-28T11:11:47.423Z,8.09
2022-12-28T11:14:28.147Z,8.02
2022-12-28T11:16:57.794Z,7.87
2022-12-28T11:19:27.661Z,7.83
2022-12-28T11:21:58.396Z,8.01
2022-12-28T11:24:30.119Z,7.84
2022-12-28T11:27:01.830Z,7.76
2022-12-28T11:29:31.349Z,7.88
2022-12-28T11:32:06.516Z,8.01
2022-12-28T11:34:38.631Z,7.86
2022-12-28T11:37:14.059Z,7.79
2022-12-28T11:39:46.650Z,7.76
2022-12-28T11:42:49.330Z,7.86
2022-12-28T11:45:53.924Z,7.79
2022-12-28T11:48:49.033Z,7.84
2022-12-28T11:51:20.022Z,7.79
2022-12-28T11:53:59.495Z,7.39
2022-12-28T11:57:00.779Z,7.60
2022-12-28T11:59:32.189Z,7.65
2022-12-28T12:02:02.369Z,7.74
2022-12-28T12:04:39.108Z,7.74
2022-12-28T12:07:31.543Z,7.64
2022-12-28T12:10:38.994Z,7.78
2022-12-28T12:13:49.071Z,7.77
2022-12-28T12:16:27.874Z,7.68
2022-12-28T12:18:59.309Z,7.80
2022-12-28T12:21:31.641Z,7.73
2022-12-28T12:24:09.695Z,7.82
2022-12-28T12:26:42.081Z,7.87
2022-12-28T12:29:18.458Z,7.77
2022-12-28T12:31:52.094Z,7.76
2022-12-28T12:34:27.369Z,7.79
2022-12-28T12:37:19.863Z,8.04
2022-12-28T12:40:17.098Z,7.86
2022-12-28T12:43:06.724Z,7.23
2022-12-28T12:45:49.509Z,7.89
2022-12-28T12:48:39.767Z,7.74
2022-12-28T12:51:29.761Z,8.15
2022-12-28T12:54:17.192Z,8.01
2022-12-28T12:56:52.278Z,8.01
2022-12-28T12:59:51.144Z,7.99
2022-12-28T13:02:37.024Z,7.98
2022-12-28T13:05:07.496Z,7.97
2022-12-28T13:07:41.706Z,8.11
2022-12-28T13:10:17.927Z,8.14
2022-12-28T13:12:47.187Z,8.33
2022-12-28T13:15:19.231Z,7.33
2022-12-28T13:20:57.385Z,8.45
2022-12-28T13:23:28.544Z,8.39
2022-12-28T13:26:00.890Z,8.14
2022-12-28T13:28:34.228Z,8.04
2022-12-28T13:31:09.018Z,8.17
2022-12-28T13:33:42.641Z,8.22
2022-12-28T13:36:15.608Z,8.22
2022-12-28T13:38:44.588Z,8.27
2022-12-28T13:41:22.866Z,8.21
2022-12-28T13:44:21.780Z,8.31
2022-12-28T13:46:58.834Z,8.40
2022-12-28T13:49:36.480Z,8.33
2022-12-28T13:52:10.289Z,8.26
2022-12-28T13:54:40.796Z,8.44
2022-12-28T13:57:45.152Z,8.55
2022-12-28T14:00:03.469Z,8.32
2022-12-28T14:02:35.639Z,8.47
2022-12-28T14:05:06.783Z,8.36
2022-12-28T14:07:38.010Z,8.39
2022-12-28T14:10:08.311Z,8.35
2022-12-28T14:12:38.179Z,8.32
2022-12-28T14:15:10.222Z,8.19
2022-12-28T14:17:41.880Z,8.51
2022-12-28T14:20:13.028Z,8.44
2022-12-28T14:22:42.754Z,8.47
2022-12-28T14:25:14.115Z,8.47
2022-12-28T14:27:45.748Z,8.41
2022-12-28T14:30:27.713Z,8.32
2022-12-28T14:32:59.164Z,8.40
2022-12-28T14:35:30.315Z,8.40
2022-12-28T14:38:01.704Z,8.51
2022-12-28T14:40:34.365Z,8.45
2022-12-28T14:43:11.187Z,8.45
2022-12-28T14:48:40.469Z,7.81
2022-12-28T14:54:19.379Z,8.41
2022-12-28T14:56:54.727Z,8.47
2022-12-28T14:59:29.359Z,8.51
2022-12-28T15:00:25.413Z,8.47
2022-12-28T15:01:59.340Z,8.38
2022-12-28T15:04:40.102Z,8.45
2022-12-28T15:07:11.901Z,8.36
2022-12-28T15:09:44.927Z,8.46
2022-12-28T15:12:15.654Z,8.21
2022-12-28T15:14:48.324Z,8.58
2022-12-28T15:17:20.606Z,8.39
2022-12-28T15:19:50.396Z,8.47
2022-12-28T15:22:19.864Z,8.44
2022-12-28T15:24:50.768Z,8.37
2022-12-28T15:27:20.203Z,8.31
2022-12-28T15:30:05.664Z,8.36
2022-12-28T15:32:35.524Z,8.29
2022-12-28T15:35:04.545Z,8.33
2022-12-28T15:37:33.597Z,8.39
2022-12-28T15:40:08.795Z,8.25
2022-12-28T15:42:40.628Z,8.23
2022-12-28T15:45:11.236Z,8.33
2022-12-28T15:47:40.523Z,8.21
2022-12-28T15:50:13.102Z,8.32
2022-12-28T15:52:42.441Z,8.23
2022-12-28T15:55:13.756Z,8.28
2022-12-28T15:57:42.950Z,8.27
2022-12-28T16:00:19.111Z,8.16
2022-12-28T16:02:48.226Z,8.24
2022-12-28T16:05:19.642Z,8.13
2022-12-28T16:07:49.009Z,7.96
2022-12-28T16:10:20.368Z,7.95
2022-12-28T16:12:52.867Z,7.94
2022-12-28T16:15:21.955Z,8.09
2022-12-28T16:17:57.300Z,7.98
2022-12-28T16:20:26.930Z,7.38
2022-12-28T16:22:56.023Z,7.95
2022-12-28T16:25:26.735Z,7.98
2022-12-28T16:27:55.824Z,7.95
2022-12-28T16:30:24.669Z,8.03
2022-12-28T16:32:54.032Z,7.96
2022-12-28T16:35:22.980Z,8.00
2022-12-28T16:37:53.756Z,8.00
2022-12-28T16:40:22.545Z,7.93
2022-12-28T16:42:52.649Z,7.86
2022-12-28T16:45:21.543Z,7.38
2022-12-28T16:47:51.135Z,7.80
2022-12-28T16:50:20.469Z,7.89
2022-12-28T16:52:49.144Z,7.60
2022-12-28T16:55:18.314Z,7.83
2022-12-28T16:57:47.446Z,7.85
2022-12-28T17:00:17.954Z,7.86
2022-12-28T17:02:47.182Z,7.79
2022-12-28T17:05:16.457Z,7.84
2022-12-28T17:07:45.789Z,7.84
2022-12-28T17:10:15.251Z,7.84
2022-12-28T17:12:44.420Z,7.69
2022-12-28T17:15:13.585Z,7.75
2022-12-28T17:17:43.893Z,7.99
2022-12-28T17:20:13.358Z,7.85
2022-12-28T17:22:42.131Z,7.60
2022-12-28T17:25:11.898Z,7.72
2022-12-28T17:27:41.021Z,7.96
2022-12-28T17:30:13.803Z,7.94
2022-12-28T17:32:44.536Z,7.82
2022-12-28T17:35:16.431Z,7.70
2022-12-28T17:37:45.263Z,7.64
2022-12-28T17:40:14.473Z,7.84
2022-12-28T17:42:44.396Z,7.75
2022-12-28T17:45:16.027Z,7.85
2022-12-28T17:47:47.456Z,7.75
2022-12-28T17:50:18.152Z,7.73
2022-12-28T17:52:47.038Z,7.84
2022-12-28T17:55:16.201Z,7.83
2022-12-28T17:57:45.694Z,7.66
2022-12-28T18:00:16.558Z,7.64
2022-12-28T18:02:47.821Z,7.70
2022-12-28T18:05:17.050Z,7.58
2022-12-28T18:07:46.223Z,7.67
2022-12-28T18:10:18.451Z,7.75
2022-12-28T18:12:47.715Z,7.69
2022-12-28T18:15:17.014Z,7.77
2022-12-28T18:17:47.806Z,7.74
2022-12-28T18:20:17.208Z,7.73
2022-12-28T18:22:46.752Z,7.90
2022-12-28T18:25:16.353Z,7.99
2022-12-28T18:27:45.839Z,7.94
2022-12-28T18:30:15.645Z,7.86
2022-12-28T18:32:47.953Z,7.94
2022-12-28T18:35:17.544Z,7.93
2022-12-28T18:37:46.987Z,8.00
2022-12-28T18:40:20.127Z,7.88
2022-12-28T18:42:48.923Z,7.96
2022-12-28T18:45:18.111Z,7.85
2022-12-28T18:47:48.480Z,8.06
2022-12-28T18:50:18.074Z,8.14
2022-12-28T18:52:48.670Z,8.17
2022-12-28T18:55:21.531Z,8.13
2022-12-28T18:57:51.086Z,8.06
2022-12-28T19:00:20.960Z,8.02
2022-12-28T19:02:53.642Z,8.06
2022-12-28T19:05:23.116Z,8.24
2022-12-28T19:07:52.780Z,7.42
2022-12-28T19:10:22.319Z,8.10
2022-12-28T19:12:51.386Z,7.97
2022-12-28T19:15:21.539Z,8.24
2022-12-28T19:17:50.798Z,8.16
2022-12-28T19:20:21.625Z,8.16
2022-12-28T19:22:51.259Z,8.33
2022-12-28T19:25:20.847Z,8.33
2022-12-28T19:27:53.297Z,8.42
2022-12-28T19:30:22.809Z,8.38
2022-12-28T19:32:52.817Z,8.23
2022-12-28T19:35:23.866Z,8.16
2022-12-28T19:37:53.334Z,8.28
2022-12-28T19:40:22.500Z,8.27
2022-12-28T19:42:52.408Z,8.46
2022-12-28T19:45:21.677Z,8.38
2022-12-28T19:47:51.044Z,8.38
2022-12-28T19:50:20.617Z,8.43
2022-12-28T19:52:50.930Z,8.44
2022-12-28T19:55:19.948Z,8.62
2022-12-28T19:57:49.056Z,8.41
2022-12-28T20:00:21.001Z,8.41
2022-12-28T20:02:53.935Z,8.49
2022-12-28T20:05:23.314Z,8.52
2022-12-28T20:07:54.772Z,8.54
2022-12-28T20:10:24.244Z,8.45
2022-12-28T20:12:53.851Z,7.97
2022-12-28T20:15:23.459Z,8.62
2022-12-28T20:17:53.247Z,8.64
2022-12-28T20:20:26.965Z,8.73
2022-12-28T20:23:00.114Z,8.67
2022-12-28T20:25:31.747Z,8.78
2022-12-28T20:28:00.897Z,8.75
2022-12-28T20:30:31.985Z,8.75
2022-12-28T20:33:01.790Z,8.73
2022-12-28T20:35:31.243Z,8.68
2022-12-28T20:38:02.236Z,8.62
2022-12-28T20:40:31.688Z,8.83
2022-12-28T20:43:18.298Z,8.90
2022-12-28T20:45:53.941Z,8.99
2022-12-28T20:48:23.538Z,8.88
2022-12-28T20:50:59.033Z,8.86
2022-12-28T20:53:30.033Z,8.99
2022-12-28T20:56:07.621Z,8.85
2022-12-28T20:58:37.770Z,8.98
2022-12-28T21:01:08.620Z,9.01
2022-12-28T21:03:38.391Z,9.06
2022-12-28T21:06:08.699Z,8.85
2022-12-28T21:08:39.761Z,8.95
2022-12-28T21:11:09.277Z,9.03
2022-12-28T21:13:42.437Z,8.88
2022-12-28T21:16:14.891Z,9.06
2022-12-28T21:18:44.381Z,9.10
2022-12-28T21:21:16.426Z,9.14
2022-12-28T21:23:47.105Z,8.45
2022-12-28T21:26:20.919Z,9.14
2022-12-28T21:28:50.129Z,9.13
2022-12-28T21:31:19.206Z,9.18
2022-12-28T21:33:48.415Z,9.11
2022-12-28T21:36:19.512Z,9.20
2022-12-28T21:38:50.600Z,9.15
2022-12-28T21:41:37.505Z,9.22
2022-12-28T21:44:07.827Z,9.09
2022-12-28T21:46:37.589Z,9.24
2022-12-28T21:49:07.554Z,9.19
2022-12-28T21:51:38.705Z,9.44
2022-12-28T21:54:14.044Z,9.37
2022-12-28T21:56:44.461Z,9.15
2022-12-28T21:59:16.399Z,9.24
2022-12-28T22:02:03.643Z,9.28
2022-12-28T22:04:50.559Z,9.20
2022-12-28T22:07:21.458Z,9.11
2022-12-28T22:10:09.186Z,9.18
2022-12-28T22:12:38.870Z,9.16
2022-12-28T22:15:29.344Z,9.26
2022-12-28T22:18:00.700Z,9.17
2022-12-28T22:20:32.297Z,9.34
2022-12-28T22:23:02.373Z,9.24
2022-12-28T22:25:34.009Z,9.29
2022-12-28T22:28:03.720Z,9.22
2022-12-28T22:30:34.286Z,9.23
2022-12-28T22:33:04.102Z,9.23
2022-12-28T22:35:34.525Z,9.07
2022-12-28T22:38:03.721Z,9.08
2022-12-28T22:40:36.868Z,9.25
2022-12-28T22:43:06.576Z,9.23
2022-12-28T22:45:36.391Z,9.10
2022-12-28T22:48:06.346Z,9.08
2022-12-28T22:50:41.302Z,9.11
2022-12-28T22:53:12.870Z,9.17
2022-12-28T22:55:43.787Z,9.14
2022-12-28T22:58:13.188Z,9.09
2022-12-28T23:00:42.785Z,8.49
2022-12-28T23:03:12.132Z,8.47
2022-12-28T23:05:42.010Z,9.16
2022-12-28T23:08:11.523Z,9.06
2022-12-28T23:10:40.533Z,9.07
2022-12-28T23:13:11.252Z,9.10
2022-12-28T23:15:39.818Z,9.22
2022-12-28T23:18:23.212Z,9.29
2022-12-28T23:21:09.485Z,9.18
2022-12-28T23:23:55.989Z,9.25
2022-12-28T23:26:43.074Z,9.22
2022-12-28T23:29:13.560Z,9.12
2022-12-28T23:31:43.453Z,9.34
2022-12-28T23:34:12.839Z,9.28
2022-12-28T23:36:42.118Z,9.32
2022-12-28T23:39:11.530Z,9.43
2022-12-28T23:41:49.963Z,9.31
2022-12-28T23:44:23.089Z,9.21
2022-12-28T23:46:58.535Z,8.87
2022-12-28T23:49:29.185Z,9.26
2022-12-28T23:51:58.618Z,9.22
2022-12-28T23:54:28.620Z,9.36
2022-12-28T23:56:58.267Z,9.61
2022-12-28T23:59:29.164Z,8.84
